createdAt,value
2022-08-26T00:02:11.729Z,6.75
2022-08-26T00:04:41.121Z,6.68
2022-08-26T00:07:09.332Z,6.70
2022-08-26T00:09:40.174Z,6.53
2022-08-26T00:12:09.425Z,6.68
2022-08-26T00:14:40.760Z,6.93
2022-08-26T00:17:08.783Z,6.93
2022-08-26T00:19:37.345Z,6.85
2022-08-26T00:22:07.459Z,6.38
2022-08-26T00:24:35.536Z,7.30
2022-08-26T00:27:03.507Z,6.88
2022-08-26T00:29:34.782Z,6.95
2022-08-26T00:32:04.102Z,7.00
2022-08-26T00:34:32.081Z,7.05
2022-08-26T00:36:59.979Z,7.07
2022-08-26T00:39:29.390Z,6.65
2022-08-26T00:41:57.282Z,7.22
2022-08-26T00:44:25.263Z,6.93
2022-08-26T00:46:58.692Z,6.55
2022-08-26T00:49:35.714Z,7.13
2022-08-26T00:52:06.547Z,7.10
2022-08-26T00:54:46.949Z,6.78
2022-08-26T00:57:18.033Z,7.10
2022-08-26T00:59:46.896Z,7.40
2022-08-26T01:02:21.175Z,6.82
2022-08-26T01:04:54.427Z,7.10
2022-08-26T01:07:25.713Z,6.93
2022-08-26T01:09:55.833Z,8.02
2022-08-26T01:12:25.079Z,6.90
2022-08-26T01:14:53.425Z,6.97
2022-08-26T01:17:21.597Z,7.32
2022-08-26T01:19:53.724Z,6.88
2022-08-26T01:22:26.725Z,6.53
2022-08-26T01:24:58.466Z,6.95
2022-08-26T01:27:32.424Z,7.20
2022-08-26T01:30:02.248Z,7.63
2022-08-26T01:32:32.913Z,6.53
2022-08-26T01:35:02.031Z,7.15
2022-08-26T01:37:36.887Z,6.95
2022-08-26T01:40:14.921Z,6.53
2022-08-26T01:42:47.124Z,7.18
2022-08-26T01:45:19.715Z,5.93
2022-08-26T01:47:49.801Z,7.35
2022-08-26T01:50:30.627Z,7.00
2022-08-26T01:53:02.255Z,7.00
2022-08-26T01:55:33.347Z,6.97
2022-08-26T01:58:06.603Z,7.32
2022-08-26T02:00:35.977Z,6.43
2022-08-26T02:03:18.160Z,7.68
2022-08-26T02:05:48.844Z,7.60
2022-08-26T02:08:24.869Z,8.27
2022-08-26T02:10:55.357Z,7.68
2022-08-26T02:13:29.137Z,6.97
2022-08-26T02:15:57.816Z,6.68
2022-08-26T02:18:26.848Z,7.53
2022-08-26T02:20:57.455Z,7.10
2022-08-26T02:23:26.145Z,7.07
2022-08-26T02:25:59.112Z,7.68
2022-08-26T02:28:29.855Z,6.63
2022-08-26T02:30:57.833Z,7.35
2022-08-26T02:33:29.329Z,6.53
2022-08-26T02:35:57.401Z,7.20
2022-08-26T02:38:26.137Z,7.38
2022-08-26T02:40:55.743Z,8.15
2022-08-26T02:43:31.710Z,7.40
2022-08-26T02:46:02.343Z,7.32
2022-08-26T02:48:31.119Z,7.55
2022-08-26T02:51:00.936Z,7.82
2022-08-26T02:53:31.747Z,7.47
2022-08-26T02:56:01.782Z,6.93
2022-08-26T02:58:32.603Z,7.57
2022-08-26T03:01:01.511Z,6.82
2022-08-26T03:03:30.211Z,7.38
2022-08-26T03:05:58.959Z,7.00
2022-08-26T03:08:26.967Z,7.72
2022-08-26T03:10:55.361Z,7.60
2022-08-26T03:13:25.282Z,6.72
2022-08-26T03:15:53.367Z,6.85
2022-08-26T03:18:21.446Z,6.90
2022-08-26T03:20:49.515Z,6.55
2022-08-26T03:23:17.544Z,7.45
2022-08-26T03:25:50.638Z,8.15
2022-08-26T03:28:19.353Z,8.57
2022-08-26T03:30:49.304Z,8.18
2022-08-26T03:33:18.075Z,8.43
2022-08-26T03:35:50.487Z,8.18
2022-08-26T03:38:20.036Z,7.57
2022-08-26T03:40:48.052Z,7.63
2022-08-26T03:43:17.138Z,7.88
2022-08-26T03:45:45.983Z,8.15
2022-08-26T03:48:15.418Z,7.80
2022-08-26T03:50:43.963Z,7.15
2022-08-26T03:53:12.799Z,8.32
2022-08-26T03:55:43.194Z,7.85
2022-08-26T03:58:11.759Z,7.10
2022-08-26T04:00:39.818Z,7.78
2022-08-26T04:03:09.683Z,7.22
2022-08-26T04:05:39.833Z,7.60
2022-08-26T04:08:08.118Z,8.50
2022-08-26T04:10:38.464Z,7.95
2022-08-26T04:13:06.617Z,7.88
2022-08-26T04:15:34.591Z,8.02
2022-08-26T04:18:02.508Z,7.72
2022-08-26T04:20:32.097Z,7.68
2022-08-26T04:23:01.648Z,8.13
2022-08-26T04:25:29.833Z,8.60
2022-08-26T04:27:58.086Z,9.27
2022-08-26T04:30:26.264Z,8.13
2022-08-26T04:32:54.147Z,8.43
2022-08-26T04:35:25.735Z,8.77
2022-08-26T04:37:54.328Z,8.45
2022-08-26T04:40:24.126Z,9.57
2022-08-26T04:42:53.867Z,8.55
2022-08-26T04:45:22.748Z,7.70
2022-08-26T04:47:54.757Z,8.77
2022-08-26T04:50:23.643Z,8.15
2022-08-26T04:52:52.880Z,8.85
2022-08-26T04:55:20.976Z,8.68
2022-08-26T04:57:54.672Z,9.43
2022-08-26T05:00:23.241Z,9.20
2022-08-26T05:02:51.491Z,9.10
2022-08-26T05:05:19.553Z,8.20
2022-08-26T05:07:49.930Z,8.68
2022-08-26T05:10:17.986Z,10.48
2022-08-26T05:12:46.585Z,8.73
2022-08-26T05:15:16.020Z,9.63
2022-08-26T05:17:44.397Z,8.85
2022-08-26T05:20:13.046Z,9.00
2022-08-26T05:22:40.975Z,9.23
2022-08-26T05:25:09.683Z,8.57
2022-08-26T05:27:46.180Z,8.57
2022-08-26T05:30:15.847Z,9.30
2022-08-26T05:32:44.024Z,9.73
2022-08-26T05:35:12.254Z,10.25
2022-08-26T05:37:40.341Z,10.65
2022-08-26T05:40:09.461Z,10.10
2022-08-26T05:42:38.629Z,10.93
2022-08-26T05:45:07.726Z,8.93
2022-08-26T05:47:37.302Z,9.63
2022-08-26T05:50:06.923Z,8.75
2022-08-26T05:52:35.368Z,9.88
2022-08-26T05:55:04.430Z,13.15
2022-08-26T05:57:32.494Z,11.85
2022-08-26T06:00:00.633Z,8.00
2022-08-26T06:02:30.225Z,9.00
2022-08-26T06:04:59.747Z,8.85
2022-08-26T06:07:48.397Z,9.57
2022-08-26T06:10:33.045Z,9.85
2022-08-26T06:13:09.298Z,11.10
2022-08-26T06:15:45.568Z,10.40
2022-08-26T06:18:16.133Z,10.00
2022-08-26T06:20:56.821Z,12.32
2022-08-26T06:23:43.675Z,11.48
2022-08-26T06:26:12.386Z,9.48
2022-08-26T06:28:40.524Z,9.80
2022-08-26T06:31:11.651Z,9.82
2022-08-26T06:33:39.740Z,9.68
2022-08-26T06:36:09.514Z,9.98
2022-08-26T06:38:37.790Z,9.50
2022-08-26T06:41:10.754Z,8.50
2022-08-26T06:43:39.611Z,10.38
2022-08-26T06:46:10.471Z,11.02
2022-08-26T06:48:40.809Z,9.80
2022-08-26T06:51:13.459Z,10.30
2022-08-26T06:53:42.626Z,9.85
2022-08-26T06:56:11.958Z,9.75
2022-08-26T06:58:41.980Z,9.50
2022-08-26T07:01:18.206Z,9.57
2022-08-26T07:03:48.355Z,8.57
2022-08-26T07:06:19.491Z,9.55
2022-08-26T07:08:47.928Z,9.88
2022-08-26T07:11:16.565Z,9.85
2022-08-26T07:13:44.849Z,9.70
2022-08-26T07:16:17.619Z,9.13
2022-08-26T07:18:48.579Z,10.20
2022-08-26T07:21:19.181Z,10.20
2022-08-26T07:23:47.292Z,12.13
2022-08-26T07:26:19.949Z,8.63
2022-08-26T07:28:50.596Z,10.32
2022-08-26T07:31:23.988Z,8.25
2022-08-26T07:33:52.514Z,7.50
2022-08-26T07:36:24.571Z,8.15
2022-08-26T07:38:53.370Z,9.65
2022-08-26T07:41:24.245Z,8.18
2022-08-26T07:43:52.380Z,7.68
2022-08-26T07:46:27.190Z,8.45
2022-08-26T07:48:56.513Z,7.80
2022-08-26T07:51:27.002Z,7.88
2022-08-26T07:53:56.171Z,8.43
2022-08-26T07:56:24.450Z,8.45
2022-08-26T07:58:53.895Z,7.88
2022-08-26T08:01:23.898Z,7.30
2022-08-26T08:03:53.384Z,7.45
2022-08-26T08:06:22.413Z,8.73
2022-08-26T08:08:57.268Z,10.98
2022-08-26T08:11:27.229Z,10.18
2022-08-26T08:13:56.716Z,7.93
2022-08-26T08:16:26.286Z,7.35
2022-08-26T08:18:54.673Z,7.55
2022-08-26T08:21:24.430Z,7.30
2022-08-26T08:23:54.110Z,7.18
2022-08-26T08:26:24.821Z,7.65
2022-08-26T08:28:55.841Z,7.55
2022-08-26T08:31:54.272Z,8.10
2022-08-26T08:34:14.004Z,8.05
2022-08-26T08:36:41.888Z,8.35
2022-08-26T08:39:10.699Z,7.18
2022-08-26T08:41:54.867Z,9.65
2022-08-26T08:47:02.284Z,8.02
2022-08-26T08:49:31.618Z,9.57
2022-08-26T08:52:05.704Z,7.80
2022-08-26T08:54:34.254Z,8.20
2022-08-26T08:57:12.710Z,7.80
2022-08-26T08:59:47.580Z,8.57
2022-08-26T09:02:24.476Z,8.25
2022-08-26T09:05:04.511Z,8.50
2022-08-26T09:07:37.539Z,8.80
2022-08-26T09:10:17.296Z,7.70
2022-08-26T09:12:48.750Z,8.73
2022-08-26T09:15:20.145Z,7.82
2022-08-26T09:17:57.464Z,9.18
2022-08-26T09:20:36.323Z,8.70
2022-08-26T09:23:05.220Z,9.02
2022-08-26T09:25:48.046Z,8.35
2022-08-26T09:28:21.477Z,8.10
2022-08-26T09:31:07.915Z,9.50
2022-08-26T09:33:39.543Z,8.55
2022-08-26T09:36:22.872Z,8.32
2022-08-26T09:38:54.019Z,8.40
2022-08-26T09:41:26.651Z,7.53
2022-08-26T09:44:16.263Z,8.45
2022-08-26T09:46:48.412Z,9.02
2022-08-26T09:49:35.595Z,8.18
2022-08-26T09:52:22.047Z,8.70
2022-08-26T09:55:03.453Z,8.88
2022-08-26T09:57:33.438Z,8.02
2022-08-26T10:00:23.760Z,9.73
2022-08-26T10:02:56.043Z,9.68
2022-08-26T10:05:34.041Z,8.55
2022-08-26T10:08:18.449Z,8.75
2022-08-26T10:10:47.484Z,7.90
2022-08-26T10:13:25.226Z,8.90
2022-08-26T10:16:01.675Z,7.68
2022-08-26T10:18:34.105Z,8.60
2022-08-26T10:21:07.540Z,8.52
2022-08-26T10:26:14.016Z,8.70
2022-08-26T10:28:47.110Z,8.50
2022-08-26T10:31:28.276Z,9.07
2022-08-26T10:34:00.231Z,8.05
2022-08-26T10:37:10.778Z,8.43
2022-08-26T10:39:42.873Z,8.80
2022-08-26T10:42:18.735Z,8.80
2022-08-26T10:44:51.735Z,8.10
2022-08-26T10:47:27.276Z,8.73
2022-08-26T10:50:00.454Z,8.85
2022-08-26T10:52:42.125Z,8.88
2022-08-26T10:55:17.556Z,8.70
2022-08-26T10:57:57.649Z,8.07
2022-08-26T11:00:50.344Z,8.32
2022-08-26T11:03:37.889Z,8.13
2022-08-26T11:06:26.966Z,8.63
2022-08-26T11:08:57.004Z,8.50
2022-08-26T11:11:50.694Z,8.02
2022-08-26T11:14:53.093Z,8.25
2022-08-26T11:17:56.748Z,8.43
2022-08-26T11:20:39.316Z,8.32
2022-08-26T11:23:38.575Z,8.82
2022-08-26T11:26:36.307Z,9.15
2022-08-26T11:29:12.251Z,8.80
2022-08-26T11:31:57.098Z,8.35
2022-08-26T11:34:56.311Z,8.00
2022-08-26T11:37:33.212Z,8.02
2022-08-26T11:40:04.094Z,8.15
2022-08-26T11:42:41.635Z,7.75
2022-08-26T11:45:22.111Z,8.48
2022-08-26T11:47:50.276Z,7.82
2022-08-26T11:50:23.460Z,7.60
2022-08-26T11:53:06.309Z,7.57
2022-08-26T11:55:42.492Z,8.10
2022-08-26T11:58:13.842Z,8.13
2022-08-26T12:00:52.414Z,8.15
2022-08-26T12:03:24.164Z,8.23
2022-08-26T12:05:54.325Z,8.75
2022-08-26T12:08:28.716Z,7.65
2022-08-26T12:11:03.971Z,8.05
2022-08-26T12:13:32.966Z,8.27
2022-08-26T12:16:02.685Z,8.45
2022-08-26T12:18:34.575Z,7.57
2022-08-26T12:21:13.405Z,7.00
2022-08-26T12:23:46.738Z,7.82
2022-08-26T12:26:22.566Z,6.78
2022-08-26T12:28:54.736Z,7.47
2022-08-26T12:31:27.255Z,8.63
2022-08-26T12:33:59.024Z,8.10
2022-08-26T12:36:31.643Z,7.93
2022-08-26T12:39:09.465Z,8.82
2022-08-26T12:41:48.105Z,8.02
2022-08-26T12:44:53.916Z,8.00
2022-08-26T12:47:33.850Z,9.23
2022-08-26T12:50:18.316Z,7.00
2022-08-26T12:52:58.281Z,6.53
2022-08-26T12:55:37.820Z,6.53
2022-08-26T12:58:24.037Z,9.55
2022-08-26T13:00:54.054Z,7.63
2022-08-26T13:03:46.556Z,9.10
2022-08-26T13:06:18.775Z,8.35
2022-08-26T13:08:48.111Z,8.98
2022-08-26T13:11:20.533Z,7.80
2022-08-26T13:13:51.893Z,8.38
2022-08-26T13:16:22.326Z,8.43
2022-08-26T13:18:52.825Z,8.07
2022-08-26T13:21:23.308Z,8.30
2022-08-26T13:23:52.527Z,8.25
2022-08-26T13:26:23.014Z,8.00
2022-08-26T13:29:01.640Z,8.00
2022-08-26T13:31:32.080Z,8.15
2022-08-26T13:34:00.169Z,8.23
2022-08-26T13:36:28.819Z,8.55
2022-08-26T13:38:56.757Z,8.18
2022-08-26T13:41:29.617Z,8.35
2022-08-26T13:43:58.925Z,9.23
2022-08-26T13:46:28.478Z,9.73
2022-08-26T13:48:56.948Z,8.60
2022-08-26T13:51:25.194Z,8.50
2022-08-26T13:53:54.418Z,8.20
2022-08-26T13:56:22.979Z,8.35
2022-08-26T13:58:52.385Z,8.27
2022-08-26T14:01:20.652Z,7.55
2022-08-26T14:03:48.780Z,7.60
2022-08-26T14:06:17.386Z,7.70
2022-08-26T14:08:45.967Z,7.13
2022-08-26T14:11:14.054Z,7.30
2022-08-26T14:13:42.202Z,7.97
2022-08-26T14:16:18.636Z,7.68
2022-08-26T14:18:50.605Z,7.88
2022-08-26T14:21:19.626Z,7.82
2022-08-26T14:23:47.619Z,8.77
2022-08-26T14:26:29.452Z,8.95
2022-08-26T14:28:59.011Z,9.00
2022-08-26T14:31:30.176Z,9.30
2022-08-26T14:33:59.533Z,8.60
2022-08-26T14:36:32.113Z,9.48
2022-08-26T14:39:03.103Z,9.30
2022-08-26T14:41:32.021Z,8.85
2022-08-26T14:44:02.302Z,8.93
2022-08-26T14:46:34.708Z,9.15
2022-08-26T14:49:05.223Z,9.20
2022-08-26T14:51:35.374Z,9.90
2022-08-26T14:54:16.216Z,8.75
2022-08-26T14:56:48.666Z,8.82
2022-08-26T14:59:19.001Z,9.98
2022-08-26T15:01:48.770Z,8.73
2022-08-26T15:04:16.992Z,8.48
2022-08-26T15:06:45.173Z,8.02
2022-08-26T15:09:13.870Z,8.45
2022-08-26T15:11:41.831Z,8.32
2022-08-26T15:14:18.975Z,8.38
2022-08-26T15:16:49.644Z,7.50
2022-08-26T15:19:18.080Z,7.70
2022-08-26T15:21:47.416Z,8.00
2022-08-26T15:24:16.576Z,6.70
2022-08-26T15:26:45.307Z,7.80
2022-08-26T15:29:13.287Z,7.32
2022-08-26T15:31:41.779Z,7.18
2022-08-26T15:34:16.643Z,6.88
2022-08-26T15:36:46.508Z,6.18
2022-08-26T15:39:16.281Z,6.47
2022-08-26T15:41:44.218Z,6.40
2022-08-26T15:44:14.032Z,6.18
2022-08-26T15:46:42.416Z,6.82
2022-08-26T15:49:17.491Z,6.53
2022-08-26T15:51:47.984Z,6.53
2022-08-26T15:54:17.114Z,6.63
2022-08-26T15:56:45.554Z,6.25
2022-08-26T15:59:18.853Z,6.13
2022-08-26T16:01:47.807Z,6.10
2022-08-26T16:04:20.273Z,6.60
2022-08-26T16:06:54.350Z,6.20
2022-08-26T16:09:26.500Z,6.35
2022-08-26T16:11:55.859Z,5.97
2022-08-26T16:14:24.106Z,6.15
2022-08-26T16:16:52.390Z,6.78
2022-08-26T16:19:22.261Z,10.05
2022-08-26T16:21:51.602Z,17.08
2022-08-26T16:24:24.865Z,7.85
2022-08-26T16:26:56.013Z,5.85
2022-08-26T16:29:24.585Z,5.00
2022-08-26T16:31:54.857Z,5.53
2022-08-26T16:34:24.433Z,4.20
2022-08-26T16:36:53.049Z,3.67
2022-08-26T16:39:20.987Z,5.28
2022-08-26T16:41:49.232Z,5.40
2022-08-26T16:44:17.437Z,5.53
2022-08-26T16:46:45.629Z,5.93
2022-08-26T16:49:13.709Z,6.22
2022-08-26T16:51:43.047Z,5.50
2022-08-26T16:54:11.005Z,5.60
2022-08-26T16:56:39.351Z,5.53
2022-08-26T16:59:09.548Z,4.13
2022-08-26T17:01:37.586Z,4.72
2022-08-26T17:04:05.897Z,5.07
2022-08-26T17:06:34.095Z,4.47
2022-08-26T17:09:03.485Z,7.75
2022-08-26T17:11:31.596Z,6.32
2022-08-26T17:13:59.628Z,4.80
2022-08-26T17:16:27.784Z,4.03
2022-08-26T17:18:59.041Z,5.40
2022-08-26T17:21:29.804Z,6.45
2022-08-26T17:23:57.744Z,7.40
2022-08-26T17:26:27.730Z,7.30
2022-08-26T17:28:55.991Z,7.28
2022-08-26T17:31:25.087Z,7.82
2022-08-26T17:33:54.252Z,6.60
2022-08-26T17:36:27.951Z,6.65
2022-08-26T17:38:57.657Z,6.65
2022-08-26T17:41:27.898Z,6.53
2022-08-26T17:43:56.248Z,6.75
2022-08-26T17:46:25.440Z,6.47
2022-08-26T17:48:53.664Z,5.78
2022-08-26T17:51:22.704Z,6.60
2022-08-26T17:53:51.639Z,6.72
2022-08-26T17:56:23.940Z,7.20
2022-08-26T17:58:55.150Z,6.57
2022-08-26T18:01:26.857Z,7.05
2022-08-26T18:04:00.112Z,7.35
2022-08-26T18:06:30.643Z,7.90
2022-08-26T18:08:59.350Z,8.00
2022-08-26T18:11:28.350Z,7.63
2022-08-26T18:13:58.048Z,8.45
2022-08-26T18:16:26.174Z,8.45
2022-08-26T18:18:54.405Z,8.57
2022-08-26T18:21:24.094Z,7.95
2022-08-26T18:23:53.202Z,9.27
2022-08-26T18:26:23.982Z,8.40
2022-08-26T18:28:52.031Z,7.78
2022-08-26T18:31:21.687Z,8.68
2022-08-26T18:33:50.080Z,9.40
2022-08-26T18:36:21.806Z,8.48
2022-08-26T18:38:51.375Z,9.27
2022-08-26T18:41:22.976Z,8.75
2022-08-26T18:43:53.037Z,9.10
2022-08-26T18:46:26.209Z,9.80
2022-08-26T18:48:56.844Z,10.93
2022-08-26T18:51:27.233Z,9.27
2022-08-26T18:53:55.099Z,8.50
2022-08-26T18:56:23.789Z,8.20
2022-08-26T18:58:52.179Z,8.18
2022-08-26T19:01:25.430Z,7.75
2022-08-26T19:03:57.139Z,9.10
2022-08-26T19:06:26.482Z,8.48
2022-08-26T19:08:54.832Z,7.43
2022-08-26T19:11:32.501Z,7.68
2022-08-26T19:14:06.489Z,7.32
2022-08-26T19:16:35.112Z,6.85
2022-08-26T19:19:05.517Z,6.80
2022-08-26T19:21:35.232Z,6.40
2022-08-26T19:24:05.574Z,7.30
2022-08-26T19:26:35.017Z,7.15
2022-08-26T19:29:03.266Z,7.13
2022-08-26T19:31:31.266Z,7.82
2022-08-26T19:33:59.544Z,8.95
2022-08-26T19:36:29.560Z,7.80
2022-08-26T19:38:58.184Z,7.95
2022-08-26T19:41:36.811Z,8.40
2022-08-26T19:44:07.553Z,8.13
2022-08-26T19:46:35.886Z,8.98
2022-08-26T19:49:04.604Z,8.48
2022-08-26T19:51:35.640Z,9.27
2022-08-26T19:54:04.412Z,9.35
2022-08-26T19:56:32.877Z,10.80
2022-08-26T19:59:01.483Z,10.40
2022-08-26T20:01:29.473Z,10.63
2022-08-26T20:03:57.540Z,9.98
2022-08-26T20:06:25.717Z,9.50
2022-08-26T20:08:55.043Z,9.35
2022-08-26T20:11:24.920Z,9.82
2022-08-26T20:13:52.928Z,9.43
2022-08-26T20:16:21.108Z,9.00
2022-08-26T20:19:06.354Z,8.18
2022-08-26T20:21:38.118Z,8.35
2022-08-26T20:24:10.112Z,8.85
2022-08-26T20:26:40.485Z,8.18
2022-08-26T20:29:10.722Z,8.23
2022-08-26T20:31:39.159Z,8.10
2022-08-26T20:34:07.871Z,8.95
2022-08-26T20:36:36.180Z,8.18
2022-08-26T20:39:05.223Z,8.23
2022-08-26T20:41:34.636Z,7.82
2022-08-26T20:44:03.480Z,8.73
2022-08-26T20:46:31.489Z,8.98
2022-08-26T20:48:59.518Z,10.00
2022-08-26T20:51:29.227Z,8.60
2022-08-26T20:53:57.132Z,8.23
2022-08-26T20:56:25.686Z,9.10
2022-08-26T20:58:58.502Z,8.32
2022-08-26T21:01:30.524Z,8.85
2022-08-26T21:03:58.961Z,8.80
2022-08-26T21:06:27.112Z,9.32
2022-08-26T21:08:55.492Z,9.55
2022-08-26T21:11:25.343Z,14.32
2022-08-26T21:14:16.730Z,9.93
2022-08-26T21:16:44.091Z,8.88
2022-08-26T21:19:14.712Z,9.27
2022-08-26T21:21:43.129Z,9.20
2022-08-26T21:24:11.365Z,7.78
2022-08-26T21:26:39.367Z,9.45
2022-08-26T21:29:09.881Z,14.70
2022-08-26T21:31:43.575Z,9.77
2022-08-26T21:34:13.554Z,9.75
2022-08-26T21:36:41.886Z,8.50
2022-08-26T21:39:12.038Z,8.80
2022-08-26T21:41:41.793Z,8.30
2022-08-26T21:44:11.771Z,9.50
2022-08-26T21:46:39.932Z,9.75
2022-08-26T21:49:10.289Z,10.80
2022-08-26T21:51:40.920Z,9.82
2022-08-26T21:54:11.248Z,9.77
2022-08-26T21:56:42.319Z,9.48
2022-08-26T21:59:12.804Z,8.65
2022-08-26T22:01:40.979Z,9.52
2022-08-26T22:04:10.552Z,8.57
2022-08-26T22:06:43.326Z,9.43
2022-08-26T22:09:12.112Z,10.00
2022-08-26T22:11:40.503Z,8.82
2022-08-26T22:14:08.610Z,8.23
2022-08-26T22:16:38.206Z,9.85
2022-08-26T22:19:06.549Z,9.10
2022-08-26T22:21:35.735Z,9.23
2022-08-26T22:24:06.234Z,9.02
2022-08-26T22:26:34.595Z,9.68
2022-08-26T22:29:04.895Z,10.15
2022-08-26T22:31:37.542Z,9.77
2022-08-26T22:34:09.066Z,9.85
2022-08-26T22:36:42.941Z,9.73
2022-08-26T22:39:13.108Z,10.55
2022-08-26T22:41:42.107Z,9.88
2022-08-26T22:44:10.335Z,10.60
2022-08-26T22:46:38.754Z,10.20
2022-08-26T22:49:09.797Z,9.48
2022-08-26T22:51:37.838Z,10.57
2022-08-26T22:54:06.687Z,9.77
2022-08-26T22:56:34.929Z,9.90
2022-08-26T22:59:03.049Z,10.50
2022-08-26T23:01:31.777Z,10.68
2022-08-26T23:03:59.921Z,10.82
2022-08-26T23:06:29.231Z,11.38
2022-08-26T23:08:57.259Z,10.82
2022-08-26T23:11:25.242Z,11.27
2022-08-26T23:13:53.315Z,12.05
2022-08-26T23:16:21.462Z,11.82
2022-08-26T23:18:50.513Z,11.27
2022-08-26T23:21:18.415Z,11.80
2022-08-26T23:23:47.656Z,13.73
2022-08-26T23:26:17.763Z,13.27
2022-08-26T23:28:45.917Z,13.85
2022-08-26T23:31:14.357Z,13.60
2022-08-26T23:33:59.787Z,13.05
2022-08-26T23:36:28.056Z,12.23
2022-08-26T23:39:00.225Z,11.85
2022-08-26T23:41:28.501Z,13.77
2022-08-26T23:43:58.695Z,12.60
2022-08-26T23:46:28.591Z,11.98
2022-08-26T23:48:56.552Z,12.82
2022-08-26T23:51:41.912Z,11.18
2022-08-26T23:54:11.405Z,12.02
2022-08-26T23:56:39.528Z,10.88
2022-08-26T23:59:08.012Z,11.05
